Time;durP1;ratioP1;P1;durP2;ratioP2;P2;SDS_P1;SDS_P2;PMS_P1;PMS_P2;Temp;Humidity;BMP_temperature;BMP_pressure;BME280_temperature;BME280_humidity;BME280_pressure;Samples;Min_cycle;Max_cycle;Signal;HPM_P1;HPM_P2
2023/06/16 00:00:43;;;;;;;5.50;3.72;;;;;;;;;;5046931;28;20614;-76
2023/06/16 00:03:09;;;;;;;4.78;3.72;;;;;;;;;;5045482;28;20048;-76
2023/06/16 00:05:36;;;;;;;4.85;4.05;;;;;;;;;;5047165;28;20040;-76
2023/06/16 00:08:03;;;;;;;5.93;3.95;;;;;;;;;;5047651;28;20051;-76
2023/06/16 00:10:30;;;;;;;7.03;4.07;;;;;;;;;;5027040;28;20036;-76
2023/06/16 00:12:56;;;;;;;5.05;4.50;;;;;;;;;;5046758;28;20051;-77
2023/06/16 00:15:24;;;;;;;8.68;4.85;;;;;;;;;;5045134;28;20929;-77
2023/06/16 00:17:50;;;;;;;6.70;4.30;;;;;;;;;;5046884;28;20508;-76
2023/06/16 00:20:21;;;;;;;8.27;4.40;;;;;;;;;;5029792;28;20044;-76
2023/06/16 00:22:47;;;;;;;5.72;4.65;;;;;;;;;;5045081;28;20056;-76
2023/06/16 00:25:15;;;;;;;5.38;4.38;;;;;;;;;;5041974;28;20380;-76
2023/06/16 00:27:41;;;;;;;5.40;4.55;;;;;;;;;;5051291;28;20061;-76
2023/06/16 00:30:08;;;;;;;7.72;5.15;;;;;;;;;;5033543;28;20040;-77
2023/06/16 00:32:34;;;;;;;5.55;4.97;;;;;;;;;;5050092;28;20048;-77
2023/06/16 00:35:00;;;;;;;4.95;4.32;;;;;;;;;;5050105;28;20095;-76
2023/06/16 00:37:26;;;;;;;5.70;5.15;;;;;;;;;;5052084;28;20576;-77
2023/06/16 00:39:52;;;;;;;6.35;5.45;;;;;;;;;;5049875;28;20204;-76
2023/06/16 00:42:18;;;;;;;6.18;5.00;;;;;;;;;;5049935;28;20056;-77
2023/06/16 00:44:44;;;;;;;5.88;4.53;;;;;;;;;;5050442;28;20041;-77
2023/06/16 00:47:11;;;;;;;6.30;4.95;;;;;;;;;;5050446;28;20147;-77
2023/06/16 00:49:37;;;;;;;4.93;4.53;;;;;;;;;;5047674;28;20253;-77
2023/06/16 00:52:05;;;;;;;7.55;5.38;;;;;;;;;;5044733;28;20056;-76
2023/06/16 00:54:32;;;;;;;5.97;4.90;;;;;;;;;;5046017;28;20052;-76
2023/06/16 00:56:58;;;;;;;8.95;5.25;;;;;;;;;;5011311;28;20064;-78
2023/06/16 00:59:26;;;;;;;5.90;5.15;;;;;;;;;;5050042;28;20045;-78
2023/06/16 01:01:54;;;;;;;5.55;4.70;;;;;;;;;;5051998;28;20064;-76
2023/06/16 01:04:21;;;;;;;9.80;5.18;;;;;;;;;;5048188;28;20158;-76
2023/06/16 01:06:50;;;;;;;6.78;4.95;;;;;;;;;;5032925;28;20045;-75
2023/06/16 01:09:17;;;;;;;5.63;5.05;;;;;;;;;;5050842;28;20044;-76
2023/06/16 01:11:55;;;;;;;7.05;5.55;;;;;;;;;;5049186;28;20094;-76
2023/06/16 01:14:28;;;;;;;7.35;5.75;;;;;;;;;;5048293;28;20048;-76
2023/06/16 01:16:57;;;;;;;8.65;6.32;;;;;;;;;;5046647;28;20120;-76
2023/06/16 01:19:28;;;;;;;9.93;6.40;;;;;;;;;;5048385;28;20040;-76
2023/06/16 01:22:07;;;;;;;8.02;6.75;;;;;;;;;;5048011;28;20045;-76
2023/06/16 01:24:35;;;;;;;8.48;6.70;;;;;;;;;;5045977;28;20044;-76
2023/06/16 01:27:02;;;;;;;8.80;7.00;;;;;;;;;;5048990;28;20047;-78
2023/06/16 01:29:28;;;;;;;8.55;7.03;;;;;;;;;;5047212;28;20037;-78
2023/06/16 01:31:55;;;;;;;9.90;7.35;;;;;;;;;;5047558;28;20159;-78
2023/06/16 01:34:21;;;;;;;10.27;7.43;;;;;;;;;;5045360;28;20051;-78
2023/06/16 01:36:48;;;;;;;8.82;7.90;;;;;;;;;;5049133;28;20040;-76
2023/06/16 01:39:15;;;;;;;8.25;7.43;;;;;;;;;;5045258;28;20045;-76
2023/06/16 01:41:41;;;;;;;8.48;7.43;;;;;;;;;;5046699;28;20098;-76
2023/06/16 01:44:07;;;;;;;10.15;7.35;;;;;;;;;;5048562;28;20099;-76
2023/06/16 01:46:34;;;;;;;8.23;7.30;;;;;;;;;;5046669;28;20507;-76
2023/06/16 01:49:01;;;;;;;8.40;7.40;;;;;;;;;;5045056;28;20056;-77
2023/06/16 01:51:27;;;;;;;22.45;7.70;;;;;;;;;;5027653;28;20101;-76
2023/06/16 01:53:53;;;;;;;10.27;7.72;;;;;;;;;;5045082;28;20488;-76
2023/06/16 01:56:20;;;;;;;12.13;8.75;;;;;;;;;;5029400;28;20075;-77
2023/06/16 01:58:46;;;;;;;9.63;8.27;;;;;;;;;;5047699;28;20044;-76
2023/06/16 02:01:29;;;;;;;10.88;9.35;;;;;;;;;;5043973;28;20052;-76
2023/06/16 02:03:59;;;;;;;11.05;9.95;;;;;;;;;;5045138;28;20055;-77
2023/06/16 02:06:31;;;;;;;12.02;10.23;;;;;;;;;;5047142;28;20044;-76
2023/06/16 02:08:59;;;;;;;13.00;11.00;;;;;;;;;;5046223;28;20099;-77
2023/06/16 02:11:26;;;;;;;11.90;10.07;;;;;;;;;;5043252;28;20154;-77
2023/06/16 02:13:52;;;;;;;17.05;11.68;;;;;;;;;;5044636;28;20045;-76
2023/06/16 02:16:19;;;;;;;12.75;10.45;;;;;;;;;;5046591;28;20086;-77
2023/06/16 02:18:45;;;;;;;15.23;11.85;;;;;;;;;;5051854;28;20059;-76
2023/06/16 02:21:11;;;;;;;15.15;12.43;;;;;;;;;;5052919;28;20132;-77
2023/06/16 02:23:37;;;;;;;14.40;12.93;;;;;;;;;;5047198;28;20048;-76
2023/06/16 02:26:03;;;;;;;14.35;13.05;;;;;;;;;;5048638;28;20133;-76
2023/06/16 02:28:29;;;;;;;20.42;13.93;;;;;;;;;;5049741;28;20044;-76
2023/06/16 02:30:55;;;;;;;14.73;13.00;;;;;;;;;;5028685;28;20085;-76
2023/06/16 02:33:22;;;;;;;14.80;13.00;;;;;;;;;;5046389;28;20047;-76
2023/06/16 02:35:48;;;;;;;15.23;13.75;;;;;;;;;;5044398;28;20442;-77
2023/06/16 02:38:14;;;;;;;16.98;15.18;;;;;;;;;;5046370;28;20074;-76
2023/06/16 02:40:40;;;;;;;16.08;14.38;;;;;;;;;;5045143;28;20158;-76
2023/06/16 02:43:06;;;;;;;17.05;14.52;;;;;;;;;;5036152;28;20064;-77
2023/06/16 02:45:32;;;;;;;16.65;14.85;;;;;;;;;;5047474;28;20055;-76
2023/06/16 02:47:58;;;;;;;16.67;14.25;;;;;;;;;;5027024;28;20090;-77
2023/06/16 02:50:24;;;;;;;16.92;15.23;;;;;;;;;;5029247;28;20453;-77
2023/06/16 02:52:51;;;;;;;17.45;15.45;;;;;;;;;;5049313;28;20095;-76
2023/06/16 02:55:18;;;;;;;20.20;15.70;;;;;;;;;;5034814;28;20044;-77
2023/06/16 02:57:45;;;;;;;17.10;15.30;;;;;;;;;;5049390;28;20052;-77
2023/06/16 03:00:11;;;;;;;17.27;15.27;;;;;;;;;;5046509;28;20044;-77
2023/06/16 03:02:38;;;;;;;17.25;15.55;;;;;;;;;;5046002;28;20083;-76
2023/06/16 03:05:04;;;;;;;19.55;16.92;;;;;;;;;;5044521;28;20088;-77
2023/06/16 03:07:31;;;;;;;19.10;17.05;;;;;;;;;;5043317;28;20102;-77
2023/06/16 03:09:59;;;;;;;20.13;18.08;;;;;;;;;;5041098;28;20048;-77
2023/06/16 03:12:25;;;;;;;19.30;17.27;;;;;;;;;;5045129;28;20055;-79
2023/06/16 03:14:51;;;;;;;21.05;17.48;;;;;;;;;;5044790;28;20480;-77
2023/06/16 03:17:21;;;;;;;22.52;19.30;;;;;;;;;;5046165;28;20052;-77
2023/06/16 03:19:48;;;;;;;20.60;18.50;;;;;;;;;;5024278;28;20043;-76
2023/06/16 03:22:14;;;;;;;20.25;18.20;;;;;;;;;;5042492;28;20073;-77
2023/06/16 03:24:42;;;;;;;24.42;18.67;;;;;;;;;;5042838;28;20530;-76
2023/06/16 03:27:08;;;;;;;20.60;18.48;;;;;;;;;;5046536;28;20044;-76
2023/06/16 03:29:34;;;;;;;22.48;19.02;;;;;;;;;;5045805;28;20535;-76
2023/06/16 03:32:01;;;;;;;24.45;20.35;;;;;;;;;;5047346;28;20048;-77
2023/06/16 03:34:29;;;;;;;20.67;18.08;;;;;;;;;;5047449;28;20041;-77
2023/06/16 03:36:55;;;;;;;21.80;17.92;;;;;;;;;;5046988;28;20052;-76
2023/06/16 03:39:21;;;;;;;22.00;19.02;;;;;;;;;;5043859;28;20155;-76
2023/06/16 03:41:47;;;;;;;20.35;18.25;;;;;;;;;;5048835;28;20401;-76
2023/06/16 03:44:13;;;;;;;20.88;18.42;;;;;;;;;;5050986;28;20102;-76
2023/06/16 03:46:39;;;;;;;22.05;19.77;;;;;;;;;;5047306;28;20127;-76
2023/06/16 03:49:07;;;;;;;22.83;19.50;;;;;;;;;;5046520;28;20044;-77
2023/06/16 03:51:33;;;;;;;22.50;18.65;;;;;;;;;;5046732;28;20399;-76
2023/06/16 03:54:00;;;;;;;24.33;21.75;;;;;;;;;;5045133;28;20056;-76
2023/06/16 03:56:26;;;;;;;20.77;18.58;;;;;;;;;;5050653;28;20056;-77
2023/06/16 03:58:52;;;;;;;21.08;18.90;;;;;;;;;;5032669;28;20476;-77
2023/06/16 04:01:20;;;;;;;23.30;20.17;;;;;;;;;;5048718;28;20044;-77
2023/06/16 04:03:46;;;;;;;23.42;20.27;;;;;;;;;;5041969;28;20060;-76
2023/06/16 04:06:12;;;;;;;25.30;19.63;;;;;;;;;;5044902;28;20074;-76
2023/06/16 04:08:40;;;;;;;21.25;19.05;;;;;;;;;;5041824;28;20049;-76
2023/06/16 04:11:06;;;;;;;23.17;19.02;;;;;;;;;;5043466;28;20119;-77
2023/06/16 04:13:32;;;;;;;24.25;18.17;;;;;;;;;;5041583;28;20048;-76
2023/06/16 04:15:58;;;;;;;21.77;19.58;;;;;;;;;;5040861;28;20150;-77
2023/06/16 04:18:24;;;;;;;22.75;20.40;;;;;;;;;;5040511;28;20113;-76
2023/06/16 04:20:50;;;;;;;23.15;20.15;;;;;;;;;;5043886;28;20051;-77
2023/06/16 04:23:17;;;;;;;22.52;20.25;;;;;;;;;;5048148;28;20044;-79
2023/06/16 04:25:43;;;;;;;23.90;20.42;;;;;;;;;;5050979;28;20048;-76
2023/06/16 04:28:14;;;;;;;22.33;19.20;;;;;;;;;;5049911;28;20579;-76
2023/06/16 04:30:44;;;;;;;21.33;19.13;;;;;;;;;;5047703;28;20049;-76
2023/06/16 04:33:10;;;;;;;22.50;18.05;;;;;;;;;;5046912;28;20070;-80
2023/06/16 04:35:39;;;;;;;24.60;19.08;;;;;;;;;;5041907;28;20052;-80
2023/06/16 04:38:06;;;;;;;24.27;18.42;;;;;;;;;;5039096;28;20051;-78
2023/06/16 04:40:32;;;;;;;21.58;19.23;;;;;;;;;;5042758;28;20048;-78
2023/06/16 04:42:59;;;;;;;23.77;19.00;;;;;;;;;;5025700;28;20055;-79
2023/06/16 04:45:26;;;;;;;20.45;18.35;;;;;;;;;;5044921;28;20044;-79
2023/06/16 04:47:52;;;;;;;20.75;18.02;;;;;;;;;;5037998;28;20052;-78
2023/06/16 04:50:18;;;;;;;21.70;19.40;;;;;;;;;;5044445;28;20113;-78
2023/06/16 04:52:47;;;;;;;21.13;18.75;;;;;;;;;;5045644;28;20076;-78
2023/06/16 04:55:16;;;;;;;22.70;18.13;;;;;;;;;;5049809;28;20527;-76
2023/06/16 04:57:42;;;;;;;26.70;18.33;;;;;;;;;;5054024;28;20044;-76
2023/06/16 05:00:09;;;;;;;23.95;19.05;;;;;;;;;;5033027;28;20050;-76
2023/06/16 05:02:37;;;;;;;21.70;19.50;;;;;;;;;;5044002;28;20056;-76
2023/06/16 05:05:03;;;;;;;21.35;19.13;;;;;;;;;;5045789;28;20373;-77
2023/06/16 05:07:30;;;;;;;21.38;19.27;;;;;;;;;;5046511;28;20072;-77
2023/06/16 05:09:56;;;;;;;22.15;19.52;;;;;;;;;;5032581;28;20399;-78
2023/06/16 05:12:23;;;;;;;23.75;18.52;;;;;;;;;;5043064;28;20044;-77
2023/06/16 05:14:49;;;;;;;20.95;18.83;;;;;;;;;;5030732;28;20101;-77
2023/06/16 05:17:15;;;;;;;20.98;18.20;;;;;;;;;;5011968;28;20075;-77
2023/06/16 05:19:41;;;;;;;21.13;18.92;;;;;;;;;;5026894;28;20044;-77
2023/06/16 05:22:07;;;;;;;20.83;18.20;;;;;;;;;;5045560;28;20086;-77
2023/06/16 05:24:33;;;;;;;25.30;18.38;;;;;;;;;;5027583;28;20051;-77
2023/06/16 05:27:00;;;;;;;21.63;18.48;;;;;;;;;;5015038;28;20047;-77
2023/06/16 05:29:26;;;;;;;43.03;19.98;;;;;;;;;;5052015;28;20098;-77
2023/06/16 05:31:52;;;;;;;29.42;19.13;;;;;;;;;;5047870;28;20041;-76
2023/06/16 05:34:18;;;;;;;21.00;18.17;;;;;;;;;;5049861;28;20080;-77
2023/06/16 05:36:44;;;;;;;20.10;17.65;;;;;;;;;;5045199;28;20106;-77
2023/06/16 05:39:18;;;;;;;17.92;15.50;;;;;;;;;;5029533;28;20044;-77
2023/06/16 05:41:45;;;;;;;18.58;16.48;;;;;;;;;;5031648;28;20036;-77
2023/06/16 05:44:11;;;;;;;19.67;17.50;;;;;;;;;;5047220;28;20095;-77
2023/06/16 05:46:37;;;;;;;20.88;17.13;;;;;;;;;;5031984;28;20624;-77
2023/06/16 05:49:03;;;;;;;18.80;16.25;;;;;;;;;;5049106;28;20511;-78
2023/06/16 05:51:29;;;;;;;18.77;16.35;;;;;;;;;;5050130;28;20086;-77
2023/06/16 05:53:55;;;;;;;20.20;15.05;;;;;;;;;;5050174;28;20052;-77
2023/06/16 05:56:23;;;;;;;18.38;15.13;;;;;;;;;;5050885;28;20099;-77
2023/06/16 05:58:50;;;;;;;13.95;12.60;;;;;;;;;;5052398;28;20558;-77
2023/06/16 06:01:16;;;;;;;14.65;12.13;;;;;;;;;;5051737;28;20653;-76
2023/06/16 06:03:45;;;;;;;18.83;11.48;;;;;;;;;;5049485;28;20078;-76
2023/06/16 06:06:12;;;;;;;13.27;11.80;;;;;;;;;;5032601;28;20044;-77
2023/06/16 06:08:38;;;;;;;12.95;9.55;;;;;;;;;;5027076;28;20041;-77
2023/06/16 06:11:06;;;;;;;12.55;8.63;;;;;;;;;;5048644;28;20043;-79
2023/06/16 06:13:32;;;;;;;13.18;8.95;;;;;;;;;;5048661;28;20168;-77
2023/06/16 06:15:58;;;;;;;9.40;8.50;;;;;;;;;;5050221;28;20072;-77
2023/06/16 06:18:25;;;;;;;9.45;8.07;;;;;;;;;;5020448;28;20101;-77
2023/06/16 06:20:51;;;;;;;9.93;7.75;;;;;;;;;;5052529;28;20054;-77
2023/06/16 06:23:17;;;;;;;8.98;8.13;;;;;;;;;;5050915;28;20074;-77
2023/06/16 06:25:43;;;;;;;13.30;9.32;;;;;;;;;;5048461;28;20051;-78
2023/06/16 06:28:09;;;;;;;12.65;8.68;;;;;;;;;;5035429;28;20095;-77
2023/06/16 06:30:36;;;;;;;9.07;8.10;;;;;;;;;;5053006;28;20098;-77
2023/06/16 06:33:03;;;;;;;9.60;8.55;;;;;;;;;;5049688;28;20048;-78
2023/06/16 06:35:29;;;;;;;9.85;7.78;;;;;;;;;;5026852;28;20083;-78
2023/06/16 06:37:55;;;;;;;11.13;8.13;;;;;;;;;;5031688;28;20159;-77
2023/06/16 06:40:22;;;;;;;11.07;8.55;;;;;;;;;;5032844;28;20174;-77
2023/06/16 06:42:48;;;;;;;8.98;7.63;;;;;;;;;;5031429;28;20535;-78
2023/06/16 06:45:14;;;;;;;11.88;7.70;;;;;;;;;;5034475;28;20047;-77
2023/06/16 06:47:41;;;;;;;11.23;7.70;;;;;;;;;;5053388;28;20041;-77
2023/06/16 06:50:07;;;;;;;9.38;7.70;;;;;;;;;;5051894;28;21710;-77
2023/06/16 06:52:33;;;;;;;9.93;7.43;;;;;;;;;;5034095;28;20067;-78
2023/06/16 06:54:59;;;;;;;8.38;7.32;;;;;;;;;;5044275;28;20533;-77
2023/06/16 06:57:25;;;;;;;13.35;8.20;;;;;;;;;;5053139;28;20047;-77
2023/06/16 06:59:52;;;;;;;9.13;7.10;;;;;;;;;;5052729;28;20145;-78
2023/06/16 07:02:18;;;;;;;9.00;7.50;;;;;;;;;;5031766;28;20045;-77
2023/06/16 07:04:44;;;;;;;10.68;6.90;;;;;;;;;;5052942;28;20080;-77
2023/06/16 07:07:10;;;;;;;9.73;6.72;;;;;;;;;;5052725;28;20065;-78
2023/06/16 07:09:36;;;;;;;9.65;6.40;;;;;;;;;;5052810;28;20028;-78
2023/06/16 07:12:03;;;;;;;10.32;6.22;;;;;;;;;;5052911;28;20040;-77
2023/06/16 07:14:29;;;;;;;6.80;5.97;;;;;;;;;;5052763;28;20098;-77
2023/06/16 07:16:57;;;;;;;10.73;6.63;;;;;;;;;;5051941;28;20036;-77
2023/06/16 07:19:26;;;;;;;7.78;6.18;;;;;;;;;;5053112;28;20078;-77
2023/06/16 07:21:52;;;;;;;7.63;6.38;;;;;;;;;;5052062;28;20048;-77
2023/06/16 07:24:18;;;;;;;10.52;7.15;;;;;;;;;;5035134;28;20506;-77
2023/06/16 07:26:45;;;;;;;7.38;6.43;;;;;;;;;;5051812;28;20045;-77
2023/06/16 07:29:11;;;;;;;7.78;6.97;;;;;;;;;;5052838;28;20488;-77
2023/06/16 07:31:37;;;;;;;8.68;6.25;;;;;;;;;;5051874;28;20049;-77
2023/06/16 07:34:03;;;;;;;9.55;5.80;;;;;;;;;;5052726;28;20067;-77
2023/06/16 07:36:31;;;;;;;7.80;5.82;;;;;;;;;;5052073;28;20539;-77
2023/06/16 07:38:57;;;;;;;7.20;5.28;;;;;;;;;;5050686;28;20106;-76
2023/06/16 07:41:23;;;;;;;6.82;4.85;;;;;;;;;;5045778;28;20113;-76
2023/06/16 07:43:49;;;;;;;6.43;4.85;;;;;;;;;;5032058;28;20049;-76
2023/06/16 07:46:19;;;;;;;9.13;5.00;;;;;;;;;;5029896;28;20117;-76
2023/06/16 07:48:46;;;;;;;5.13;3.90;;;;;;;;;;5046616;28;20051;-76
2023/06/16 07:51:12;;;;;;;6.93;4.53;;;;;;;;;;5048048;28;20056;-76
2023/06/16 07:53:41;;;;;;;7.00;5.28;;;;;;;;;;5044978;28;20045;-77
2023/06/16 07:56:07;;;;;;;6.00;4.07;;;;;;;;;;5048323;28;20138;-75
2023/06/16 07:58:35;;;;;;;5.20;4.40;;;;;;;;;;5050314;28;20040;-75
2023/06/16 08:01:01;;;;;;;8.40;4.03;;;;;;;;;;5028830;28;20049;-76
2023/06/16 08:03:27;;;;;;;7.82;3.60;;;;;;;;;;5050258;28;20044;-75
2023/06/16 08:05:54;;;;;;;5.55;3.60;;;;;;;;;;5035882;28;20119;-75
2023/06/16 08:08:21;;;;;;;11.85;4.25;;;;;;;;;;5050869;28;20223;-76
2023/06/16 08:10:47;;;;;;;5.65;3.28;;;;;;;;;;5050714;28;20056;-75
2023/06/16 08:13:13;;;;;;;7.03;2.72;;;;;;;;;;5050204;28;20114;-76
2023/06/16 08:15:39;;;;;;;4.85;2.58;;;;;;;;;;5050541;28;20086;-76
2023/06/16 08:18:06;;;;;;;5.63;2.85;;;;;;;;;;5050680;28;20075;-75
2023/06/16 08:20:32;;;;;;;7.40;3.22;;;;;;;;;;5050830;28;20040;-76
2023/06/16 08:22:58;;;;;;;3.85;2.65;;;;;;;;;;5050043;28;20103;-76
2023/06/16 08:25:24;;;;;;;5.53;2.92;;;;;;;;;;5055929;28;20038;-75
2023/06/16 08:27:51;;;;;;;6.13;3.05;;;;;;;;;;5031434;28;20040;-76
2023/06/16 08:30:17;;;;;;;4.72;3.08;;;;;;;;;;5047754;28;20279;-76
2023/06/16 08:32:43;;;;;;;6.32;3.60;;;;;;;;;;5027545;28;20048;-76
2023/06/16 08:35:10;;;;;;;5.57;3.10;;;;;;;;;;5026524;28;20047;-76
2023/06/16 08:37:36;;;;;;;4.72;2.83;;;;;;;;;;5034680;28;20044;-76
2023/06/16 08:40:10;;;;;;;7.43;3.20;;;;;;;;;;5050915;28;20125;-76
2023/06/16 08:42:37;;;;;;;3.83;2.72;;;;;;;;;;5050546;28;20044;-76
2023/06/16 08:45:06;;;;;;;7.00;2.75;;;;;;;;;;5050127;28;20059;-76
2023/06/16 08:47:34;;;;;;;4.28;2.50;;;;;;;;;;5050556;28;20810;-76
2023/06/16 08:50:00;;;;;;;8.63;3.22;;;;;;;;;;5050381;28;20047;-77
2023/06/16 08:52:28;;;;;;;6.45;2.95;;;;;;;;;;5050511;28;20087;-76
2023/06/16 08:54:57;;;;;;;3.97;2.40;;;;;;;;;;5051229;28;20044;-76
2023/06/16 08:57:24;;;;;;;6.38;2.50;;;;;;;;;;5033238;28;20063;-76
2023/06/16 08:59:54;;;;;;;4.75;2.30;;;;;;;;;;5049755;28;20728;-76
2023/06/16 09:02:21;;;;;;;3.83;2.20;;;;;;;;;;5049627;28;20127;-71
2023/06/16 09:04:48;;;;;;;4.13;2.55;;;;;;;;;;5051068;28;20080;-71
2023/06/16 09:07:19;;;;;;;6.82;2.80;;;;;;;;;;5051745;28;20036;-71
2023/06/16 09:09:49;;;;;;;4.47;2.20;;;;;;;;;;5050462;28;20037;-71
2023/06/16 09:12:15;;;;;;;3.17;2.40;;;;;;;;;;5033079;28;20063;-71
2023/06/16 09:14:48;;;;;;;3.88;2.20;;;;;;;;;;5032876;28;20078;-71
2023/06/16 09:17:17;;;;;;;7.82;2.17;;;;;;;;;;5051811;28;20139;-71
2023/06/16 09:19:51;;;;;;;3.45;2.30;;;;;;;;;;5051752;28;21735;-71
2023/06/16 09:22:18;;;;;;;3.78;2.28;;;;;;;;;;5052152;28;20090;-68
2023/06/16 09:24:45;;;;;;;6.03;2.55;;;;;;;;;;5051870;28;20045;-79
2023/06/16 09:27:12;;;;;;;6.45;2.30;;;;;;;;;;5032240;28;20765;-79
2023/06/16 09:29:39;;;;;;;3.63;2.30;;;;;;;;;;5049418;28;20044;-81
2023/06/16 09:32:09;;;;;;;5.70;2.47;;;;;;;;;;5048924;28;20040;-80
2023/06/16 09:34:35;;;;;;;4.55;2.40;;;;;;;;;;5049084;28;20067;-79
2023/06/16 09:37:05;;;;;;;4.10;2.30;;;;;;;;;;5051467;28;20040;-79
2023/06/16 09:39:31;;;;;;;5.55;2.53;;;;;;;;;;5056303;28;20419;-80
2023/06/16 09:41:58;;;;;;;4.65;2.55;;;;;;;;;;5055407;28;20045;-80
2023/06/16 09:44:26;;;;;;;4.07;2.50;;;;;;;;;;5050429;28;20068;-80
2023/06/16 09:46:53;;;;;;;3.42;2.30;;;;;;;;;;5049486;28;20504;-78
2023/06/16 09:49:20;;;;;;;4.22;2.30;;;;;;;;;;5033867;28;20110;-81
2023/06/16 09:51:51;;;;;;;4.43;2.50;;;;;;;;;;5034836;28;20040;-80
2023/06/16 09:54:17;;;;;;;5.80;2.00;;;;;;;;;;5049069;28;20048;-79
2023/06/16 09:56:45;;;;;;;4.20;1.90;;;;;;;;;;5049054;28;20388;-80
2023/06/16 09:59:11;;;;;;;3.38;2.30;;;;;;;;;;5049229;28;20776;-79
2023/06/16 10:01:40;;;;;;;3.33;2.53;;;;;;;;;;5048078;28;20059;-78
2023/06/16 10:04:07;;;;;;;5.85;2.00;;;;;;;;;;5049786;28;20113;-79
2023/06/16 10:06:36;;;;;;;3.03;2.28;;;;;;;;;;5047491;28;20488;-79
2023/06/16 10:09:02;;;;;;;4.07;2.00;;;;;;;;;;5055434;28;20495;-79
2023/06/16 10:11:29;;;;;;;2.38;1.77;;;;;;;;;;5052442;28;20079;-80
2023/06/16 10:13:57;;;;;;;3.45;2.22;;;;;;;;;;5054586;28;20416;-79
2023/06/16 10:16:25;;;;;;;3.63;2.28;;;;;;;;;;5053981;28;20048;-79
2023/06/16 10:18:53;;;;;;;8.95;2.90;;;;;;;;;;5036557;28;20194;-80
2023/06/16 10:21:19;;;;;;;4.05;2.35;;;;;;;;;;5053094;28;20042;-79
2023/06/16 10:23:46;;;;;;;4.78;2.40;;;;;;;;;;5052629;28;20044;-80
2023/06/16 10:26:12;;;;;;;3.30;1.98;;;;;;;;;;5035868;28;20041;-79
2023/06/16 10:28:39;;;;;;;3.17;2.00;;;;;;;;;;5052597;28;20051;-79
2023/06/16 10:31:05;;;;;;;5.35;2.22;;;;;;;;;;5051234;28;20047;-79
2023/06/16 10:33:50;;;;;;;2.85;2.15;;;;;;;;;;5049300;28;20057;-79
2023/06/16 10:36:19;;;;;;;5.05;2.33;;;;;;;;;;5048262;28;20055;-79
2023/06/16 10:38:55;;;;;;;2.50;2.20;;;;;;;;;;5049711;28;20163;-79
2023/06/16 10:41:21;;;;;;;6.07;2.40;;;;;;;;;;5049736;28;20079;-79
2023/06/16 10:43:47;;;;;;;4.72;2.72;;;;;;;;;;5050008;28;20053;-79
2023/06/16 10:46:17;;;;;;;3.55;2.10;;;;;;;;;;5034764;28;20043;-79
2023/06/16 10:48:57;;;;;;;3.90;2.28;;;;;;;;;;5050929;28;20040;-78
2023/06/16 10:51:42;;;;;;;8.13;2.15;;;;;;;;;;5053911;28;20040;-78
2023/06/16 10:54:09;;;;;;;4.25;2.35;;;;;;;;;;5026327;28;20059;-78
2023/06/16 10:56:54;;;;;;;4.50;2.47;;;;;;;;;;5053262;28;20047;-78
2023/06/16 10:59:20;;;;;;;5.68;1.95;;;;;;;;;;5032474;28;20056;-79
2023/06/16 11:01:46;;;;;;;3.85;2.28;;;;;;;;;;5043395;28;20072;-79
2023/06/16 11:04:15;;;;;;;4.00;2.60;;;;;;;;;;5050966;28;20045;-79
2023/06/16 11:07:00;;;;;;;6.63;2.00;;;;;;;;;;5029036;28;20050;-80
2023/06/16 11:09:32;;;;;;;2.22;2.03;;;;;;;;;;5052433;28;20143;-79
2023/06/16 11:11:58;;;;;;;9.60;2.25;;;;;;;;;;5048075;28;20036;-79
2023/06/16 11:14:25;;;;;;;4.45;2.17;;;;;;;;;;5046975;28;20071;-78
2023/06/16 11:16:52;;;;;;;4.00;2.00;;;;;;;;;;5050208;28;20052;-80
2023/06/16 11:19:18;;;;;;;3.33;2.17;;;;;;;;;;5051095;28;20036;-79
2023/06/16 11:21:47;;;;;;;4.93;2.10;;;;;;;;;;5049688;28;20680;-79
2023/06/16 11:24:13;;;;;;;4.10;2.30;;;;;;;;;;5046445;28;20056;-79
2023/06/16 11:26:39;;;;;;;2.08;1.88;;;;;;;;;;5048989;28;20055;-79
2023/06/16 11:29:09;;;;;;;4.13;2.38;;;;;;;;;;5048066;28;20129;-80
2023/06/16 11:31:35;;;;;;;3.75;1.70;;;;;;;;;;5049562;28;20369;-79
2023/06/16 11:34:05;;;;;;;3.92;2.15;;;;;;;;;;5047250;28;20052;-80
2023/06/16 11:36:34;;;;;;;3.08;2.22;;;;;;;;;;5046923;28;20163;-79
2023/06/16 11:39:04;;;;;;;5.10;1.98;;;;;;;;;;5048281;28;20099;-79
2023/06/16 11:41:31;;;;;;;10.18;2.00;;;;;;;;;;5032172;28;20048;-79
2023/06/16 11:43:58;;;;;;;3.65;1.73;;;;;;;;;;5049596;28;20126;-79
2023/06/16 11:46:25;;;;;;;4.32;2.05;;;;;;;;;;5050654;28;20040;-79
2023/06/16 11:48:52;;;;;;;2.70;2.00;;;;;;;;;;5051764;28;20074;-78
2023/06/16 11:51:18;;;;;;;2.97;1.98;;;;;;;;;;5050682;28;20795;-74
2023/06/16 11:53:48;;;;;;;3.20;1.90;;;;;;;;;;5048426;28;20040;-73
2023/06/16 11:56:15;;;;;;;3.70;1.88;;;;;;;;;;5048909;28;20842;-74
2023/06/16 11:58:45;;;;;;;2.28;1.88;;;;;;;;;;5049344;28;20044;-71
2023/06/16 12:01:15;;;;;;;3.80;2.17;;;;;;;;;;5046513;28;20060;-74
2023/06/16 12:03:47;;;;;;;6.70;2.10;;;;;;;;;;5043758;28;20127;-73
2023/06/16 12:06:14;;;;;;;2.45;1.83;;;;;;;;;;5030863;28;20052;-78
2023/06/16 12:08:42;;;;;;;5.65;1.88;;;;;;;;;;5046212;28;20063;-78
2023/06/16 12:11:10;;;;;;;4.38;1.88;;;;;;;;;;5048029;28;20171;-79
2023/06/16 12:13:37;;;;;;;4.93;1.80;;;;;;;;;;5046411;28;20044;-79
2023/06/16 12:16:03;;;;;;;3.80;1.60;;;;;;;;;;5029062;28;20048;-79
2023/06/16 12:18:30;;;;;;;5.80;2.10;;;;;;;;;;5047414;28;20048;-78
2023/06/16 12:20:56;;;;;;;6.18;1.98;;;;;;;;;;5025131;28;20630;-79
2023/06/16 12:23:22;;;;;;;3.25;2.10;;;;;;;;;;5047065;28;20067;-79
2023/06/16 12:25:49;;;;;;;4.35;2.10;;;;;;;;;;5046585;28;20127;-79
2023/06/16 12:28:18;;;;;;;2.42;1.60;;;;;;;;;;5046176;28;20111;-79
2023/06/16 12:30:45;;;;;;;8.18;1.77;;;;;;;;;;5040872;28;20068;-79
2023/06/16 12:33:15;;;;;;;2.25;1.77;;;;;;;;;;5046662;28;20047;-79
2023/06/16 12:35:41;;;;;;;4.97;2.13;;;;;;;;;;5047563;28;21734;-79
2023/06/16 12:38:08;;;;;;;2.67;2.05;;;;;;;;;;5047997;28;20097;-79
2023/06/16 12:40:34;;;;;;;3.38;1.88;;;;;;;;;;5045360;28;20491;-79
2023/06/16 12:43:19;;;;;;;3.58;2.08;;;;;;;;;;5046393;28;20056;-80
2023/06/16 12:45:45;;;;;;;5.20;2.00;;;;;;;;;;5046329;28;20052;-79
2023/06/16 12:48:11;;;;;;;4.55;1.98;;;;;;;;;;5047356;28;20041;-79
2023/06/16 12:50:37;;;;;;;4.00;2.28;;;;;;;;;;5046216;28;20075;-78
2023/06/16 12:53:03;;;;;;;4.32;2.05;;;;;;;;;;5045622;28;20139;-78
2023/06/16 12:55:29;;;;;;;3.92;2.22;;;;;;;;;;5046284;28;20487;-78
2023/06/16 12:57:55;;;;;;;2.92;2.10;;;;;;;;;;5046436;28;20488;-78
2023/06/16 13:00:21;;;;;;;5.55;2.05;;;;;;;;;;5029566;28;20041;-78
2023/06/16 13:02:48;;;;;;;4.90;2.20;;;;;;;;;;5047133;28;20048;-78
2023/06/16 13:05:14;;;;;;;4.45;1.95;;;;;;;;;;5046860;28;20047;-79
2023/06/16 13:07:40;;;;;;;9.00;2.70;;;;;;;;;;5046302;28;20119;-77
2023/06/16 13:10:07;;;;;;;5.25;2.30;;;;;;;;;;5047321;28;20045;-79
2023/06/16 13:12:33;;;;;;;2.22;2.00;;;;;;;;;;5046391;28;20048;-79
2023/06/16 13:14:59;;;;;;;4.38;1.98;;;;;;;;;;5024599;28;20063;-79
2023/06/16 13:17:25;;;;;;;7.63;2.30;;;;;;;;;;5045804;28;20052;-79
2023/06/16 13:19:51;;;;;;;2.95;1.70;;;;;;;;;;5049053;28;20090;-78
2023/06/16 13:22:17;;;;;;;7.32;2.10;;;;;;;;;;5049718;28;20656;-79
2023/06/16 13:24:43;;;;;;;1.90;1.70;;;;;;;;;;5047294;28;20044;-77
2023/06/16 13:27:10;;;;;;;4.18;1.95;;;;;;;;;;5047956;28;20046;-78
2023/06/16 13:29:36;;;;;;;3.58;2.10;;;;;;;;;;5047041;28;21149;-78
2023/06/16 13:32:02;;;;;;;5.30;1.95;;;;;;;;;;5045499;28;20037;-78
2023/06/16 13:34:28;;;;;;;4.05;2.05;;;;;;;;;;5029121;28;20558;-78
2023/06/16 13:36:54;;;;;;;2.53;1.98;;;;;;;;;;5047386;28;20076;-78
2023/06/16 13:39:20;;;;;;;2.42;2.00;;;;;;;;;;5050436;28;20049;-79
2023/06/16 13:41:46;;;;;;;4.15;2.03;;;;;;;;;;5032901;28;20049;-78
2023/06/16 13:44:13;;;;;;;8.30;2.20;;;;;;;;;;5028331;28;20519;-78
2023/06/16 13:46:39;;;;;;;4.93;2.22;;;;;;;;;;5048513;28;20056;-78
2023/06/16 13:49:06;;;;;;;4.30;2.42;;;;;;;;;;5046218;28;20436;-78
2023/06/16 13:51:32;;;;;;;2.80;2.08;;;;;;;;;;5046086;28;20044;-78
2023/06/16 13:53:58;;;;;;;3.85;2.35;;;;;;;;;;5043973;28;20162;-78
2023/06/16 13:56:25;;;;;;;8.88;2.05;;;;;;;;;;5043287;28;20044;-79
2023/06/16 13:58:51;;;;;;;4.45;2.35;;;;;;;;;;5049160;28;20037;-79
2023/06/16 14:01:17;;;;;;;8.15;2.50;;;;;;;;;;5048029;28;20041;-80
2023/06/16 14:03:43;;;;;;;2.97;2.45;;;;;;;;;;5044757;28;20048;-80
2023/06/16 14:06:10;;;;;;;4.22;2.70;;;;;;;;;;5050457;28;20040;-79
2023/06/16 14:08:36;;;;;;;6.00;2.50;;;;;;;;;;5034421;28;20050;-80
2023/06/16 14:11:02;;;;;;;4.30;2.35;;;;;;;;;;5035157;28;20060;-79
2023/06/16 14:13:28;;;;;;;7.28;2.92;;;;;;;;;;5049996;28;20236;-79
2023/06/16 14:15:54;;;;;;;4.97;2.58;;;;;;;;;;5048392;28;20053;-80
2023/06/16 14:18:20;;;;;;;4.25;2.50;;;;;;;;;;5047142;28;20056;-79
2023/06/16 14:20:46;;;;;;;3.25;2.50;;;;;;;;;;5033680;28;20083;-80
2023/06/16 14:23:15;;;;;;;2.92;2.50;;;;;;;;;;5051414;28;20049;-79
2023/06/16 14:25:44;;;;;;;7.22;2.92;;;;;;;;;;5038183;28;20114;-79
2023/06/16 14:28:10;;;;;;;6.80;3.13;;;;;;;;;;5051245;28;20049;-80
2023/06/16 14:30:38;;;;;;;5.80;3.38;;;;;;;;;;5053122;28;20044;-80
2023/06/16 14:33:05;;;;;;;8.43;3.45;;;;;;;;;;5053097;28;22152;-79
2023/06/16 14:35:31;;;;;;;6.05;3.33;;;;;;;;;;5030090;28;20044;-79